Time;durP1;ratioP1;P1;durP2;ratioP2;P2;SDS_P1;SDS_P2;PMS_P1;PMS_P2;Temp;Humidity;BMP_temperature;BMP_pressure;BME280_temperature;BME280_humidity;BME280_pressure;Samples;Min_cycle;Max_cycle;Signal;HPM_P1;HPM_P2
2021/07/02 00:01:16;;;;;;;7.90;5.60;;;;;;;22.32;83.49;98923.77;1682157;84;21034;-76
2021/07/02 00:03:43;;;;;;;6.65;5.33;;;;;;;22.31;83.37;98924.91;1682867;83;21089;-80
2021/07/02 00:06:09;;;;;;;9.05;5.62;;;;;;;22.24;83.67;98918.66;1685586;83;21878;-79
2021/07/02 00:08:36;;;;;;;12.23;6.75;;;;;;;22.14;84.28;98916.39;1682747;85;21479;-77
2021/07/02 00:11:03;;;;;;;7.50;5.87;;;;;;;22.05;84.61;98906.14;1682531;85;21006;-77
2021/07/02 00:13:29;;;;;;;7.65;5.55;;;;;;;22.02;85.24;98904.07;1682886;84;21065;-78
2021/07/02 00:15:58;;;;;;;7.90;5.35;;;;;;;21.98;85.11;98914.13;1682841;85;20946;-78
2021/07/02 00:18:24;;;;;;;8.53;5.60;;;;;;;21.95;85.21;98909.34;1683131;85;21112;-73
2021/07/02 00:20:51;;;;;;;7.12;5.75;;;;;;;21.96;85.14;98913.69;1682677;85;21034;-74
2021/07/02 00:23:18;;;;;;;8.08;7.25;;;;;;;21.94;85.39;98915.95;1682639;85;21519;-70
2021/07/02 00:25:46;;;;;;;7.17;5.85;;;;;;;21.89;85.62;98913.41;1705197;83;21275;-72
2021/07/02 00:28:13;;;;;;;13.90;5.78;;;;;;;21.85;85.66;98902.36;1700017;83;21033;-78
2021/07/02 00:30:41;;;;;;;8.98;5.33;;;;;;;21.88;85.16;98909.08;1727495;83;21199;-80
2021/07/02 00:33:08;;;;;;;11.63;6.12;;;;;;;21.91;85.05;98905.67;1708613;83;21023;-68
2021/07/02 00:35:34;;;;;;;7.83;6.60;;;;;;;21.94;84.98;98900.89;1698416;84;21533;-69
2021/07/02 00:38:01;;;;;;;9.28;6.12;;;;;;;21.96;84.82;98895.89;1698382;84;21564;-68
2021/07/02 00:40:29;;;;;;;7.75;5.53;;;;;;;21.97;84.70;98899.62;1698803;83;21556;-68
2021/07/02 00:42:56;;;;;;;6.60;5.50;;;;;;;22.04;84.46;98899.86;1688314;83;21147;-67
2021/07/02 00:45:23;;;;;;;5.45;4.95;;;;;;;22.07;84.06;98906.01;1701148;83;21032;-69
2021/07/02 00:47:49;;;;;;;10.32;5.17;;;;;;;22.08;83.87;98898.59;1701761;83;21028;-68
2021/07/02 00:50:16;;;;;;;8.03;5.95;;;;;;;22.10;83.71;98887.53;1718940;83;21075;-68
2021/07/02 00:52:43;;;;;;;11.95;5.90;;;;;;;22.10;83.96;98894.95;1698598;83;22174;-71
2021/07/02 00:55:11;;;;;;;11.73;6.17;;;;;;;22.05;84.12;98894.62;1701702;83;21162;-71
2021/07/02 00:57:40;;;;;;;9.93;6.80;;;;;;;22.02;83.84;98891.18;1725317;83;21008;-68
2021/07/02 01:00:08;;;;;;;8.60;5.55;;;;;;;22.00;83.88;98889.94;1712340;83;21487;-69
2021/07/02 01:02:35;;;;;;;7.50;6.17;;;;;;;21.98;84.53;98889.48;1700071;83;21103;-69
2021/07/02 01:05:04;;;;;;;8.18;6.28;;;;;;;21.96;83.99;98884.94;1721272;83;21047;-68
2021/07/02 01:07:31;;;;;;;7.97;6.35;;;;;;;21.93;83.95;98892.41;1725495;83;21779;-70
2021/07/02 01:10:00;;;;;;;11.93;7.15;;;;;;;21.89;84.62;98881.36;1711506;83;21050;-69
2021/07/02 01:12:28;;;;;;;6.70;6.08;;;;;;;21.86;84.64;98878.52;1698437;83;21076;-68
2021/07/02 01:14:55;;;;;;;6.78;6.10;;;;;;;21.86;85.20;98877.16;1698279;83;22298;-69
2021/07/02 01:17:23;;;;;;;7.20;6.00;;;;;;;21.85;84.86;98879.66;1697001;84;21566;-67
2021/07/02 01:19:53;;;;;;;11.43;7.10;;;;;;;21.81;85.65;98873.28;1712382;83;21072;-69
2021/07/02 01:22:26;;;;;;;11.57;6.87;;;;;;;21.72;86.25;98872.84;1727129;83;20961;-69
2021/07/02 01:24:56;;;;;;;9.40;7.75;;;;;;;21.56;87.46;98871.92;1727236;83;21314;-68
2021/07/02 01:27:24;;;;;;;10.08;7.33;;;;;;;21.38;88.72;98869.75;1728112;83;21577;-70
2021/07/02 01:29:53;;;;;;;10.13;6.72;;;;;;;21.23;89.54;98867.11;1696787;83;21056;-67
2021/07/02 01:32:20;;;;;;;7.30;6.67;;;;;;;21.21;89.55;98869.38;1704431;83;21215;-69
2021/07/02 01:34:49;;;;;;;7.92;7.20;;;;;;;21.24;89.13;98869.52;1711131;83;20965;-70
2021/07/02 01:37:16;;;;;;;11.80;6.83;;;;;;;21.27;89.04;98871.56;1711749;83;21073;-70
2021/07/02 01:39:43;;;;;;;6.62;6.03;;;;;;;21.32;89.17;98869.17;1706848;83;21054;-69
2021/07/02 01:42:10;;;;;;;8.68;6.35;;;;;;;21.44;88.97;98868.39;1682631;85;21065;-68
2021/07/02 01:44:40;;;;;;;6.47;5.37;;;;;;;21.51;88.59;98859.03;1699263;83;21195;-69
2021/07/02 01:47:08;;;;;;;9.25;6.90;;;;;;;21.60;87.87;98863.81;1711230;83;21539;-69
2021/07/02 01:49:37;;;;;;;9.85;5.83;;;;;;;21.60;87.26;98856.41;1711291;83;21007;-68
2021/07/02 01:52:05;;;;;;;8.55;7.75;;;;;;;21.61;86.99;98860.75;1711279;83;21097;-68
2021/07/02 01:54:33;;;;;;;11.68;7.12;;;;;;;21.52;86.74;98860.06;1705156;83;21504;-76
2021/07/02 01:57:07;;;;;;;9.58;8.13;;;;;;;21.32;87.92;98863.70;1704422;83;21129;-69
2021/07/02 01:59:36;;;;;;;9.18;7.25;;;;;;;21.10;89.54;98863.51;1688822;83;20958;-70
2021/07/02 02:02:05;;;;;;;9.83;7.40;;;;;;;21.05;89.72;98869.79;1685305;83;21554;-72
2021/07/02 02:04:33;;;;;;;10.25;7.65;;;;;;;21.05;89.62;98870.59;1702409;83;21046;-71
2021/07/02 02:07:01;;;;;;;8.80;7.03;;;;;;;21.05;89.64;98873.89;1683238;85;21025;-68
2021/07/02 02:09:28;;;;;;;9.20;6.03;;;;;;;21.07;89.73;98872.41;1683875;83;21745;-67
2021/07/02 02:11:56;;;;;;;11.90;7.97;;;;;;;21.11;89.66;98879.35;1685215;83;20918;-78
2021/07/02 02:14:25;;;;;;;8.60;7.70;;;;;;;21.14;89.48;98890.47;1682678;83;21562;-68
2021/07/02 02:16:52;;;;;;;30.62;27.17;;;;;;;21.27;89.48;98885.80;1682688;84;21030;-68
2021/07/02 02:19:20;;;;;;;12.20;8.68;;;;;;;21.41;88.87;98892.31;1701509;83;21017;-68
2021/07/02 02:21:47;;;;;;;9.53;8.53;;;;;;;21.56;88.44;98889.70;1708793;83;21131;-72
2021/07/02 02:24:16;;;;;;;10.43;7.97;;;;;;;21.69;87.23;98897.34;1674151;83;21557;-69
2021/07/02 02:26:45;;;;;;;14.05;8.58;;;;;;;21.75;85.96;98902.82;1682695;85;21061;-71
2021/07/02 02:29:12;;;;;;;9.43;6.72;;;;;;;21.77;85.98;98916.17;1690020;83;21001;-69
2021/07/02 02:31:40;;;;;;;9.55;7.25;;;;;;;21.86;85.71;98911.37;1727432;83;21069;-68
2021/07/02 02:34:08;;;;;;;11.53;6.78;;;;;;;21.83;84.90;98913.41;1727672;83;21138;-68
2021/07/02 02:36:36;;;;;;;7.70;6.70;;;;;;;21.74;84.54;98912.16;1727053;83;21290;-71
2021/07/02 02:39:05;;;;;;;10.40;7.42;;;;;;;21.64;84.88;98916.72;1710960;83;21513;-70
2021/07/02 02:41:33;;;;;;;12.40;8.08;;;;;;;21.66;85.25;98922.66;1711761;83;21116;-68
2021/07/02 02:44:00;;;;;;;13.90;8.90;;;;;;;21.72;85.36;98928.95;1699958;83;21028;-69
2021/07/02 02:46:28;;;;;;;15.28;9.50;;;;;;;21.81;85.36;98923.92;1727785;83;21713;-68
2021/07/02 02:48:55;;;;;;;17.20;10.68;;;;;;;21.90;85.28;98928.71;1721958;83;21547;-68
2021/07/02 02:51:22;;;;;;;13.83;11.03;;;;;;;21.91;84.88;98932.48;1699181;83;20945;-69
2021/07/02 02:53:49;;;;;;;11.40;10.05;;;;;;;22.00;84.94;98928.28;1699388;84;21378;-68
2021/07/02 02:56:18;;;;;;;10.28;9.13;;;;;;;22.07;84.57;98932.59;1712048;83;21013;-71
2021/07/02 02:58:45;;;;;;;10.58;8.18;;;;;;;22.10;84.09;98929.19;1726184;81;21863;-70
2021/07/02 03:01:12;;;;;;;12.63;9.95;;;;;;;22.05;84.00;98919.27;1714525;83;21008;-69
2021/07/02 03:03:39;;;;;;;14.13;10.68;;;;;;;21.97;84.26;98922.91;1719366;83;21490;-68
2021/07/02 03:06:08;;;;;;;10.88;9.80;;;;;;;21.88;84.67;98923.56;1727026;83;21088;-67
2021/07/02 03:08:35;;;;;;;11.95;8.90;;;;;;;21.89;84.96;98925.73;1705405;83;21136;-69
2021/07/02 03:11:04;;;;;;;12.15;8.83;;;;;;;21.87;85.12;98924.70;1698208;84;21492;-69
2021/07/02 03:13:31;;;;;;;11.38;9.48;;;;;;;21.90;85.28;98934.19;1698596;83;21509;-68
2021/07/02 03:15:58;;;;;;;12.05;9.33;;;;;;;21.93;85.43;98925.27;1698898;83;21084;-75
2021/07/02 03:18:26;;;;;;;14.05;10.40;;;;;;;21.97;85.43;98933.05;1705555;83;21522;-68
2021/07/02 03:20:53;;;;;;;10.10;9.18;;;;;;;22.02;85.48;98940.47;1720217;83;21096;-69
2021/07/02 03:23:20;;;;;;;11.08;9.50;;;;;;;22.09;85.38;98948.13;1669992;86;21240;-68
2021/07/02 03:25:47;;;;;;;12.13;8.78;;;;;;;22.15;85.29;98944.02;1694437;83;21037;-69
2021/07/02 03:28:14;;;;;;;11.28;10.13;;;;;;;22.23;85.17;98950.50;1727306;83;21084;-68
2021/07/02 03:30:41;;;;;;;11.80;9.28;;;;;;;22.34;85.08;98954.38;1689741;83;21557;-68
2021/07/02 03:33:08;;;;;;;13.45;9.43;;;;;;;22.46;84.68;98949.66;1683325;84;20981;-69
2021/07/02 03:35:35;;;;;;;13.50;11.75;;;;;;;22.56;84.12;98946.44;1693301;83;23293;-69
2021/07/02 03:38:03;;;;;;;18.52;11.73;;;;;;;22.63;83.92;98940.94;1647659;86;21033;-69
2021/07/02 03:40:30;;;;;;;11.18;10.05;;;;;;;22.76;83.37;98951.55;1655210;86;21574;-68
2021/07/02 03:42:57;;;;;;;17.40;10.63;;;;;;;22.84;82.75;98946.48;1654963;86;21077;-69
2021/07/02 03:45:26;;;;;;;10.50;9.55;;;;;;;22.88;82.48;98945.20;1705214;83;21143;-68
2021/07/02 03:47:53;;;;;;;17.15;12.03;;;;;;;22.96;82.21;98951.13;1682574;85;23309;-68
2021/07/02 03:50:23;;;;;;;15.83;13.25;;;;;;;23.06;82.03;98943.77;1696575;83;20989;-68
2021/07/02 03:52:50;;;;;;;14.18;11.35;;;;;;;23.02;81.71;98942.88;1706511;83;20979;-69
2021/07/02 03:55:17;;;;;;;14.75;10.85;;;;;;;22.75;83.27;98948.57;1688770;83;21037;-68
2021/07/02 03:57:44;;;;;;;18.87;12.03;;;;;;;22.66;83.49;98945.15;1682744;85;21045;-69
2021/07/02 04:00:12;;;;;;;15.38;11.75;;;;;;;22.67;83.24;98944.58;1682726;85;21231;-69
2021/07/02 04:02:44;;;;;;;18.70;12.82;;;;;;;22.70;83.52;98940.59;1682978;85;20962;-68
2021/07/02 04:05:12;;;;;;;16.17;11.40;;;;;;;22.77;83.70;98943.55;1701056;83;21145;-68
2021/07/02 04:07:38;;;;;;;17.05;13.60;;;;;;;22.84;83.54;98931.97;1684418;83;21022;-70
2021/07/02 04:10:07;;;;;;;13.65;11.48;;;;;;;22.87;83.41;98934.83;1682674;85;21566;-68
2021/07/02 04:12:33;;;;;;;18.73;13.13;;;;;;;22.91;83.72;98932.98;1683415;83;21174;-70
2021/07/02 04:15:00;;;;;;;19.37;12.70;;;;;;;23.02;83.58;98934.05;1682799;85;20946;-70
2021/07/02 04:17:29;;;;;;;17.50;13.10;;;;;;;23.13;83.26;98933.54;1683503;85;20966;-69
2021/07/02 04:19:55;;;;;;;13.40;11.65;;;;;;;23.19;82.77;98935.69;1683089;85;21100;-68
2021/07/02 04:22:22;;;;;;;16.42;12.85;;;;;;;23.19;82.82;98938.43;1682462;85;21065;-68
2021/07/02 04:24:49;;;;;;;17.17;12.55;;;;;;;23.26;83.04;98941.95;1688283;83;21202;-70
2021/07/02 04:27:17;;;;;;;18.30;13.03;;;;;;;23.38;82.61;98945.98;1654900;86;21036;-70
2021/07/02 04:29:45;;;;;;;14.53;12.85;;;;;;;23.46;81.89;98941.72;1710989;83;21625;-73
2021/07/02 04:32:12;;;;;;;18.42;13.45;;;;;;;23.53;81.73;98943.86;1666985;85;21170;-70
2021/07/02 04:34:39;;;;;;;16.77;13.60;;;;;;;23.56;81.39;98944.51;1711298;83;21014;-70
2021/07/02 04:37:06;;;;;;;19.52;13.40;;;;;;;23.60;81.38;98945.39;1667609;85;21260;-70
2021/07/02 04:39:32;;;;;;;15.50;13.95;;;;;;;23.67;81.25;98940.66;1667545;86;20994;-69
2021/07/02 04:41:59;;;;;;;16.75;14.95;;;;;;;23.75;81.07;98935.56;1686590;83;21049;-68
2021/07/02 04:44:26;;;;;;;21.62;15.75;;;;;;;23.42;82.75;98938.62;1705173;83;21045;-69
2021/07/02 04:46:52;;;;;;;25.75;13.68;;;;;;;22.98;84.85;98939.21;1646058;86;21072;-69
2021/07/02 04:49:19;;;;;;;17.00;12.55;;;;;;;22.87;84.73;98947.17;1640400;87;23205;-70
2021/07/02 04:51:48;;;;;;;13.50;11.10;;;;;;;22.84;84.70;98949.22;1640390;87;21028;-69
2021/07/02 04:54:15;;;;;;;20.08;13.93;;;;;;;22.81;85.39;98938.95;1650601;86;21057;-71
2021/07/02 04:56:46;;;;;;;17.85;12.47;;;;;;;22.84;85.37;98927.28;1711316;82;21143;-76
2021/07/02 04:59:10;;;;;;;12.25;10.50;;;;;;;22.90;85.22;98925.89;1710830;83;20959;-70
2021/07/02 05:01:36;;;;;;;13.18;10.78;;;;;;;23.00;85.28;98927.33;1711598;83;21185;-69
2021/07/02 05:04:03;;;;;;;14.98;10.65;;;;;;;23.10;84.04;98928.20;1665616;86;20958;-69
2021/07/02 05:06:33;;;;;;;21.00;11.83;;;;;;;23.20;82.93;98932.38;1711282;83;21049;-68
2021/07/02 05:09:00;;;;;;;11.03;9.98;;;;;;;23.27;82.46;98929.80;1667269;86;21522;-70
2021/07/02 05:11:27;;;;;;;25.57;10.32;;;;;;;23.37;81.72;98931.45;1652598;83;21475;-69
2021/07/02 05:13:54;;;;;;;14.65;10.50;;;;;;;23.43;81.32;98929.25;1682560;85;21062;-69
2021/07/02 05:16:21;;;;;;;12.60;10.98;;;;;;;23.47;80.52;98935.66;1655722;85;20934;-68
2021/07/02 05:18:47;;;;;;;12.63;9.65;;;;;;;23.53;79.89;98937.56;1682565;85;21514;-71
2021/07/02 05:21:14;;;;;;;12.40;9.90;;;;;;;23.55;79.30;98944.28;1682596;85;21065;-70
2021/07/02 05:23:41;;;;;;;13.22;11.03;;;;;;;23.58;78.93;98941.42;1684344;83;21112;-73
2021/07/02 05:26:11;;;;;;;13.38;10.78;;;;;;;23.63;78.43;98944.70;1640524;86;21149;-68
2021/07/02 05:28:37;;;;;;;10.63;8.00;;;;;;;23.69;78.23;98947.98;1707350;83;21038;-68
2021/07/02 05:31:04;;;;;;;11.78;10.53;;;;;;;23.74;77.93;98946.34;1689584;83;21006;-69
2021/07/02 05:33:32;;;;;;;14.80;12.18;;;;;;;23.68;77.46;98943.64;1678908;85;22124;-69
2021/07/02 05:35:59;;;;;;;20.80;13.78;;;;;;;23.35;78.47;98954.36;1678676;85;21037;-71
2021/07/02 05:38:26;;;;;;;20.80;11.80;;;;;;;23.17;80.42;98951.69;1678753;85;21071;-68
2021/07/02 05:40:56;;;;;;;17.65;12.28;;;;;;;23.22;80.48;98952.80;1678823;85;21033;-68
2021/07/02 05:43:23;;;;;;;18.12;10.45;;;;;;;23.29;80.49;98950.84;1679101;85;20997;-67
2021/07/02 05:45:49;;;;;;;16.95;10.32;;;;;;;23.38;80.52;98965.19;1683989;84;21077;-66
2021/07/02 05:48:18;;;;;;;11.20;9.80;;;;;;;23.45;80.39;98961.30;1705445;84;20998;-68
2021/07/02 05:50:46;;;;;;;12.82;11.05;;;;;;;23.54;79.82;98963.87;1695980;84;21134;-68
2021/07/02 05:53:14;;;;;;;10.93;9.70;;;;;;;23.58;79.25;98962.02;1678640;84;20954;-67
2021/07/02 05:55:41;;;;;;;11.63;10.50;;;;;;;23.67;78.85;98965.37;1678648;84;21089;-68
2021/07/02 05:58:07;;;;;;;10.60;8.20;;;;;;;23.76;78.34;98961.30;1692172;84;21057;-69
2021/07/02 06:00:34;;;;;;;11.93;10.43;;;;;;;23.86;77.55;98980.56;1707219;84;21120;-68
2021/07/02 06:03:01;;;;;;;11.45;9.63;;;;;;;23.96;77.23;98973.16;1706834;84;21237;-69
2021/07/02 06:05:27;;;;;;;10.25;9.15;;;;;;;24.07;76.97;98979.73;1702889;84;21119;-69
2021/07/02 06:07:55;;;;;;;16.17;11.45;;;;;;;24.19;76.58;98981.01;1707005;84;21840;-69
2021/07/02 06:10:24;;;;;;;15.50;10.15;;;;;;;24.26;75.85;98981.19;1707184;84;21071;-69
2021/07/02 06:12:51;;;;;;;16.67;11.22;;;;;;;24.26;75.73;98977.06;1707347;84;21027;-70
2021/07/02 06:15:20;;;;;;;15.32;10.68;;;;;;;24.33;75.35;98978.58;1707247;84;20943;-69
2021/07/02 06:17:49;;;;;;;14.68;10.68;;;;;;;24.15;75.76;98974.61;1707317;84;20973;-68
2021/07/02 06:20:16;;;;;;;11.05;9.20;;;;;;;23.97;76.58;98978.89;1683165;84;20996;-69
2021/07/02 06:22:43;;;;;;;12.98;9.43;;;;;;;24.02;76.15;98979.19;1678845;85;21050;-69
2021/07/02 06:25:12;;;;;;;9.30;8.10;;;;;;;24.02;75.66;98977.25;1678910;85;21034;-69
2021/07/02 06:27:40;;;;;;;8.90;7.85;;;;;;;24.02;75.08;98977.81;1693555;84;21147;-69
2021/07/02 06:30:10;;;;;;;10.32;9.33;;;;;;;24.04;74.90;98970.00;1708515;83;20910;-69
2021/07/02 06:32:37;;;;;;;10.70;8.93;;;;;;;24.10;74.89;98968.01;1711403;83;21065;-69
2021/07/02 06:35:05;;;;;;;10.03;8.90;;;;;;;24.18;74.79;98968.98;1710998;83;21002;-70
2021/07/02 06:37:32;;;;;;;11.10;9.95;;;;;;;24.30;74.62;98971.64;1711251;83;21526;-69
2021/07/02 06:39:58;;;;;;;9.78;8.88;;;;;;;24.36;73.24;98966.09;1711139;83;22213;-71
2021/07/02 06:42:25;;;;;;;12.05;8.05;;;;;;;24.36;72.90;98961.97;1710900;83;21040;-68
2021/07/02 06:44:52;;;;;;;10.15;8.40;;;;;;;24.40;72.29;98959.29;1711116;83;21503;-69
2021/07/02 06:47:18;;;;;;;10.05;8.10;;;;;;;24.42;71.58;98959.14;1701223;83;20985;-69
2021/07/02 06:49:45;;;;;;;12.20;7.60;;;;;;;24.48;71.49;98948.09;1683848;83;21688;-67
2021/07/02 06:52:12;;;;;;;13.80;9.55;;;;;;;24.54;71.22;98950.77;1682633;85;21434;-70
2021/07/02 06:54:39;;;;;;;14.83;9.65;;;;;;;24.59;70.98;98952.45;1682645;85;21010;-68
2021/07/02 06:57:12;;;;;;;13.53;7.28;;;;;;;24.44;70.60;98970.58;1682570;84;21570;-69
2021/07/02 06:59:38;;;;;;;13.30;8.38;;;;;;;24.30;70.03;98961.45;1682562;85;21037;-69
2021/07/02 07:02:10;;;;;;;9.53;8.18;;;;;;;24.31;70.70;98956.75;1682679;85;21053;-68
2021/07/02 07:04:37;;;;;;;10.15;8.68;;;;;;;24.35;70.86;98958.20;1699233;83;21183;-67
2021/07/02 07:07:08;;;;;;;10.80;8.73;;;;;;;24.36;71.50;98950.97;1711010;83;21018;-69
2021/07/02 07:09:35;;;;;;;14.40;9.30;;;;;;;24.41;71.52;98949.89;1693190;83;21000;-68
2021/07/02 07:12:04;;;;;;;9.33;8.40;;;;;;;24.45;71.47;98947.44;1701397;83;21014;-71
2021/07/02 07:14:31;;;;;;;11.43;8.25;;;;;;;24.48;70.92;98952.78;1711388;83;21061;-70
2021/07/02 07:17:01;;;;;;;11.25;8.38;;;;;;;24.54;70.55;98952.15;1711396;83;21535;-70
2021/07/02 07:19:28;;;;;;;9.50;7.53;;;;;;;24.63;70.36;98949.98;1711002;83;20902;-69
2021/07/02 07:21:56;;;;;;;12.05;7.58;;;;;;;24.71;69.73;98950.34;1711225;83;21049;-68
2021/07/02 07:24:23;;;;;;;12.28;7.65;;;;;;;24.82;69.45;98945.06;1711228;83;21040;-68
2021/07/02 07:26:50;;;;;;;12.28;7.08;;;;;;;24.89;69.13;98944.45;1709556;83;21012;-68
2021/07/02 07:29:17;;;;;;;9.75;6.67;;;;;;;24.97;69.13;98951.67;1683905;83;21831;-69
2021/07/02 07:31:44;;;;;;;8.05;7.22;;;;;;;25.05;68.12;98947.89;1695792;84;21004;-68
2021/07/02 07:34:11;;;;;;;8.38;6.12;;;;;;;25.16;67.69;98950.28;1698517;84;21040;-69
2021/07/02 07:36:38;;;;;;;11.20;6.70;;;;;;;25.28;67.40;98950.68;1698445;83;21146;-67
2021/07/02 07:39:05;;;;;;;7.72;7.00;;;;;;;25.35;67.18;98947.49;1698351;84;21601;-69
2021/07/02 07:41:32;;;;;;;10.32;7.85;;;;;;;25.42;67.15;98957.85;1717439;83;21076;-69
2021/07/02 07:43:59;;;;;;;7.78;7.08;;;;;;;25.51;66.48;98953.69;1727382;83;20973;-68
2021/07/02 07:46:28;;;;;;;9.50;7.42;;;;;;;25.59;66.19;98956.80;1713996;83;21517;-69
2021/07/02 07:48:55;;;;;;;11.22;7.15;;;;;;;25.63;65.82;98966.50;1727438;83;21017;-69
2021/07/02 07:53:51;;;;;;;14.58;8.10;;;;;;;25.51;65.68;98953.69;1722887;83;22016;-69
2021/07/02 07:56:18;;;;;;;9.03;7.87;;;;;;;25.43;65.99;98953.33;1699567;83;21028;-70
2021/07/02 07:58:45;;;;;;;8.08;7.25;;;;;;;25.44;65.96;98943.91;1708309;83;20985;-69
2021/07/02 08:01:12;;;;;;;7.12;6.35;;;;;;;25.46;65.40;98962.26;1727592;83;21033;-68
2021/07/02 08:03:39;;;;;;;12.73;8.48;;;;;;;25.48;65.04;98957.73;1727635;83;21001;-70
2021/07/02 08:06:05;;;;;;;14.90;7.90;;;;;;;25.48;64.82;98959.12;1706814;83;21035;-68
2021/07/02 08:08:33;;;;;;;15.13;8.43;;;;;;;25.46;65.09;98970.52;1725657;83;21501;-70
2021/07/02 08:10:59;;;;;;;8.58;7.78;;;;;;;25.47;65.56;98963.02;1726889;83;21002;-71
2021/07/02 08:13:28;;;;;;;7.62;6.92;;;;;;;25.47;65.98;98954.77;1724940;83;21056;-68
2021/07/02 08:15:56;;;;;;;8.50;7.55;;;;;;;25.47;65.20;98964.41;1727310;83;21098;-69
2021/07/02 08:18:23;;;;;;;9.65;8.43;;;;;;;25.47;65.11;98958.89;1726091;83;21158;-69
2021/07/02 08:20:50;;;;;;;10.35;7.42;;;;;;;25.51;65.02;98959.78;1727216;83;21040;-70
2021/07/02 08:23:16;;;;;;;11.00;7.10;;;;;;;25.54;65.30;98959.03;1727429;83;21073;-69
2021/07/02 08:25:43;;;;;;;10.40;7.55;;;;;;;25.63;64.48;98955.48;1720212;83;20953;-69
2021/07/02 08:30:55;;;;;;;9.83;7.62;;;;;;;25.78;63.57;98963.41;1698386;84;21097;-68
2021/07/02 08:33:22;;;;;;;9.20;8.33;;;;;;;25.85;63.76;98970.42;1702579;83;21064;-67
2021/07/02 08:35:49;;;;;;;12.45;7.70;;;;;;;25.91;64.35;98973.86;1727700;83;21068;-68
2021/07/02 08:38:16;;;;;;;13.15;9.33;;;;;;;25.95;63.72;98976.09;1727528;83;21051;-68
2021/07/02 08:40:43;;;;;;;16.75;8.85;;;;;;;25.95;63.47;98978.04;1726909;83;21068;-69
2021/07/02 08:43:10;;;;;;;11.20;8.80;;;;;;;25.95;64.06;98970.58;1726844;83;21156;-68
2021/07/02 08:45:37;;;;;;;9.78;8.78;;;;;;;25.98;64.23;98980.88;1719732;83;21287;-69
2021/07/02 08:48:07;;;;;;;10.72;8.15;;;;;;;26.01;64.35;98976.57;1698334;84;21124;-68
2021/07/02 08:50:36;;;;;;;8.53;7.83;;;;;;;26.04;64.08;98984.89;1706726;83;21092;-68
2021/07/02 08:53:06;;;;;;;12.05;7.42;;;;;;;26.08;63.35;98975.90;1727424;83;21124;-67
2021/07/02 08:55:34;;;;;;;8.88;8.10;;;;;;;26.14;62.70;98975.19;1727397;81;21154;-70
2021/07/02 08:58:00;;;;;;;10.78;7.25;;;;;;;26.22;62.19;98974.77;1727316;83;20989;-69
2021/07/02 09:00:27;;;;;;;13.85;8.58;;;;;;;26.28;62.04;98970.53;1721608;83;20918;-71
2021/07/02 09:02:56;;;;;;;17.37;8.30;;;;;;;26.34;62.19;98978.67;1719433;83;21486;-71
2021/07/02 09:05:32;;;;;;;12.90;7.90;;;;;;;26.38;62.29;98967.11;1724799;83;21102;-73
2021/07/02 09:08:00;;;;;;;12.85;7.95;;;;;;;26.40;62.16;98982.13;1723088;83;21171;-71
2021/07/02 09:10:35;;;;;;;9.33;8.10;;;;;;;26.39;61.51;98963.98;1713674;83;21517;-70
2021/07/02 09:13:03;;;;;;;12.50;8.18;;;;;;;26.35;61.65;98956.25;1723657;83;21490;-71
2021/07/02 09:15:30;;;;;;;9.75;8.78;;;;;;;26.36;61.90;98967.50;1725233;83;21001;-73
2021/07/02 09:17:59;;;;;;;8.58;7.78;;;;;;;26.37;61.78;98964.96;1719046;83;21161;-74
2021/07/02 09:20:36;;;;;;;14.43;8.93;;;;;;;26.39;61.51;98974.22;1710706;83;21779;-74
2021/07/02 09:23:05;;;;;;;11.15;7.97;;;;;;;26.38;61.12;98967.91;1725266;83;21039;-74
2021/07/02 09:25:52;;;;;;;8.30;7.60;;;;;;;26.35;61.06;98965.11;1707323;83;21711;-74
2021/07/02 09:28:20;;;;;;;11.03;9.05;;;;;;;26.34;61.04;98957.41;1698840;84;21013;-74
2021/07/02 09:30:50;;;;;;;12.33;8.38;;;;;;;26.37;61.43;98969.68;1700603;83;21212;-75
2021/07/02 09:33:19;;;;;;;10.30;8.25;;;;;;;26.36;60.84;98980.49;1704436;83;21771;-82
2021/07/02 09:35:50;;;;;;;9.73;8.23;;;;;;;26.32;60.48;98972.75;1725417;83;21055;-78
2021/07/02 09:38:38;;;;;;;10.95;7.28;;;;;;;26.32;60.22;98975.52;1725647;83;21293;-76
2021/07/02 09:41:06;;;;;;;10.48;9.48;;;;;;;26.40;60.71;98984.89;1702167;83;21652;-76
2021/07/02 09:43:38;;;;;;;12.13;8.65;;;;;;;26.45;60.61;98984.56;1698263;84;36009;-73
2021/07/02 09:46:07;;;;;;;8.38;7.25;;;;;;;26.47;60.78;98986.35;1718370;83;21156;-76
2021/07/02 09:48:43;;;;;;;9.98;8.65;;;;;;;26.44;60.47;98982.97;1727291;83;20922;-75
2021/07/02 09:51:11;;;;;;;14.33;8.73;;;;;;;26.44;60.66;98973.32;1727319;83;22161;-77
2021/07/02 09:53:37;;;;;;;9.40;8.53;;;;;;;26.50;61.13;98975.17;1714433;83;21100;-74
2021/07/02 09:56:09;;;;;;;10.35;8.53;;;;;;;26.53;61.14;98968.10;1698399;81;21032;-74
2021/07/02 09:58:39;;;;;;;9.05;7.87;;;;;;;26.54;61.05;98975.22;1698272;84;21533;-74
2021/07/02 10:01:09;;;;;;;11.53;7.05;;;;;;;26.55;60.59;98972.09;1709816;83;21041;-73
2021/07/02 10:03:40;;;;;;;8.45;7.60;;;;;;;26.57;60.35;98984.14;1727257;83;20972;-72
2021/07/02 10:06:14;;;;;;;10.13;8.98;;;;;;;26.55;60.47;98976.81;1725356;83;20996;-72
2021/07/02 10:08:42;;;;;;;9.05;8.15;;;;;;;26.46;60.45;98971.00;1727578;83;20898;-74
2021/07/02 10:11:10;;;;;;;9.83;8.63;;;;;;;26.39;60.58;98974.22;1727005;83;21830;-72
2021/07/02 10:13:44;;;;;;;9.18;7.62;;;;;;;26.31;60.55;98969.78;1708606;83;21574;-74
2021/07/02 10:16:13;;;;;;;9.00;8.10;;;;;;;26.27;61.00;98973.88;1714755;83;21024;-75
2021/07/02 10:18:50;;;;;;;8.83;7.92;;;;;;;26.25;61.09;98965.74;1728355;83;21566;-73
2021/07/02 10:21:19;;;;;;;9.00;8.10;;;;;;;26.29;61.24;98967.97;1721671;81;21048;-76
2021/07/02 10:23:50;;;;;;;10.98;7.87;;;;;;;26.35;61.09;98975.55;1723303;83;21740;-76
2021/07/02 10:26:19;;;;;;;13.35;9.40;;;;;;;26.47;60.65;98982.83;1723102;83;21007;-77
2021/07/02 10:28:46;;;;;;;11.40;8.38;;;;;;;26.50;60.78;98973.80;1697017;84;21561;-83
2021/07/02 10:31:17;;;;;;;13.83;7.87;;;;;;;26.52;60.64;98976.98;1694779;83;21112;-78
2021/07/02 10:33:48;;;;;;;9.95;8.08;;;;;;;26.46;60.34;98985.36;1691905;83;21109;-71
2021/07/02 10:36:16;;;;;;;10.93;7.97;;;;;;;26.44;60.32;98968.38;1711284;83;21255;-71
2021/07/02 10:38:48;;;;;;;13.85;8.30;;;;;;;26.48;60.37;98966.47;1712422;83;21009;-70
2021/07/02 10:41:26;;;;;;;15.55;9.33;;;;;;;26.56;60.00;98968.75;1716522;83;20993;-72
2021/07/02 10:44:12;;;;;;;14.30;9.55;;;;;;;26.64;59.99;98967.09;1716509;83;21536;-69
2021/07/02 10:46:53;;;;;;;9.98;8.53;;;;;;;26.76;59.41;98981.25;1716582;83;21070;-70
2021/07/02 10:49:22;;;;;;;9.80;8.93;;;;;;;26.83;58.91;98973.84;1697585;82;21870;-69
2021/07/02 10:51:54;;;;;;;9.68;8.60;;;;;;;26.91;58.65;98978.11;1675909;83;20997;-70
2021/07/02 10:54:29;;;;;;;10.05;8.20;;;;;;;26.98;58.56;98972.66;1714278;82;21566;-71
2021/07/02 10:57:07;;;;;;;23.25;10.85;;;;;;;27.00;58.55;98969.75;1687921;85;21041;-70
2021/07/02 10:59:42;;;;;;;14.38;10.60;;;;;;;27.00;58.67;98970.33;1702503;83;20922;-72
2021/07/02 11:02:19;;;;;;;11.73;7.50;;;;;;;27.02;58.52;98994.20;1689255;83;21199;-76
2021/07/02 11:04:52;;;;;;;11.38;6.95;;;;;;;27.08;57.93;98979.69;1715391;83;21028;-71
2021/07/02 11:07:29;;;;;;;9.45;8.40;;;;;;;27.19;57.79;98988.11;1717089;83;20946;-74
2021/07/02 11:10:02;;;;;;;11.15;9.43;;;;;;;27.18;57.21;98985.13;1716749;83;21515;-75
2021/07/02 11:12:35;;;;;;;10.43;9.15;;;;;;;27.20;57.06;98991.05;1716847;83;21621;-74
2021/07/02 11:15:11;;;;;;;14.50;8.13;;;;;;;27.13;57.06;98988.22;1716422;83;21008;-73
2021/07/02 11:17:44;;;;;;;13.22;9.20;;;;;;;27.06;57.73;98979.84;1716470;83;21009;-72
2021/07/02 11:20:21;;;;;;;8.58;7.75;;;;;;;27.07;56.82;98980.06;1712467;83;21597;-71
2021/07/02 11:23:08;;;;;;;8.93;7.90;;;;;;;27.01;56.52;98985.70;1688481;83;21072;-74
2021/07/02 11:25:44;;;;;;;11.93;6.92;;;;;;;26.94;56.37;98993.91;1687941;83;21534;-74
2021/07/02 11:28:11;;;;;;;12.10;7.80;;;;;;;26.87;56.24;98976.09;1690211;83;21112;-74
2021/07/02 11:30:40;;;;;;;7.50;6.67;;;;;;;26.90;56.52;98988.35;1715486;83;21037;-74
2021/07/02 11:33:21;;;;;;;8.65;7.28;;;;;;;26.98;56.16;98980.94;1711654;83;21073;-73
2021/07/02 11:35:56;;;;;;;9.13;7.25;;;;;;;27.04;55.89;98978.86;1711091;83;21503;-76
2021/07/02 11:38:24;;;;;;;9.48;8.33;;;;;;;27.13;55.21;98974.42;1711156;83;21124;-71